createdAt,value
2019-01-02T00:02:29.705Z,27.52
2019-01-02T00:05:02.661Z,23.03
2019-01-02T00:07:36.364Z,32.30
2019-01-02T00:10:09.127Z,28.93
2019-01-02T00:12:42.690Z,29.00
2019-01-02T00:15:15.398Z,26.97
2019-01-02T00:17:48.415Z,23.87
2019-01-02T00:20:19.760Z,28.23
2019-01-02T00:22:53.396Z,34.10
2019-01-02T00:25:25.573Z,20.47
2019-01-02T00:28:01.556Z,25.73
2019-01-02T00:30:35.032Z,26.47
2019-01-02T00:33:08.350Z,24.70
2019-01-02T00:35:42.278Z,31.30
2019-01-02T00:38:15.284Z,21.10
2019-01-02T00:40:51.126Z,21.50
2019-01-02T00:43:24.529Z,17.57
2019-01-02T00:45:58.310Z,14.70
2019-01-02T00:48:31.318Z,11.70
2019-01-02T00:51:06.885Z,11.93
2019-01-02T00:53:39.631Z,16.87
2019-01-02T00:56:12.581Z,19.53
2019-01-02T00:58:46.919Z,13.57
2019-01-02T01:01:19.853Z,23.20
2019-01-02T01:03:52.279Z,15.30
2019-01-02T01:06:27.945Z,17.73
2019-01-02T01:09:01.304Z,13.30
2019-01-02T01:11:35.492Z,12.80
2019-01-02T01:14:08.694Z,12.93
2019-01-02T01:16:41.386Z,16.83
2019-01-02T01:19:15.074Z,18.63
2019-01-02T01:21:47.262Z,21.30
2019-01-02T01:24:20.404Z,17.53
2019-01-02T01:26:51.366Z,19.33
2019-01-02T01:29:27.950Z,13.60
2019-01-02T01:32:00.809Z,15.03
2019-01-02T01:34:34.855Z,15.00
2019-01-02T01:37:08.986Z,15.77
2019-01-02T01:39:45.446Z,14.00
2019-01-02T01:42:21.231Z,13.60
2019-01-02T01:44:54.375Z,12.13
2019-01-02T01:47:27.441Z,14.57
2019-01-02T01:50:01.871Z,16.13
2019-01-02T01:52:34.810Z,10.73
2019-01-02T01:55:11.359Z,18.37
2019-01-02T01:57:44.572Z,14.70
2019-01-02T02:00:18.466Z,12.63
2019-01-02T02:02:51.466Z,27.50
2019-01-02T02:05:25.714Z,21.97
2019-01-02T02:08:00.373Z,18.53
2019-01-02T02:10:35.060Z,15.93
2019-01-02T02:13:07.611Z,17.17
2019-01-02T02:15:40.924Z,12.70
2019-01-02T02:18:13.449Z,14.07
2019-01-02T02:20:47.089Z,15.07
2019-01-02T02:23:20.184Z,11.73
2019-01-02T02:25:53.090Z,9.97
2019-01-02T02:28:25.762Z,13.87
2019-01-02T02:31:00.284Z,13.40
2019-01-02T02:33:34.208Z,16.03
2019-01-02T02:36:07.402Z,21.57
2019-01-02T02:38:40.126Z,18.77
2019-01-02T02:41:13.434Z,14.60
2019-01-02T02:43:48.126Z,14.50
2019-01-02T02:46:20.922Z,12.10
2019-01-02T02:48:53.519Z,19.33
2019-01-02T02:51:27.704Z,14.30
2019-01-02T02:54:03.478Z,11.13
2019-01-02T02:56:36.699Z,11.40
2019-01-02T02:59:10.953Z,14.30
2019-01-02T03:01:44.240Z,12.53
2019-01-02T03:04:17.551Z,11.20
2019-01-02T03:06:53.414Z,11.83
2019-01-02T03:09:25.661Z,14.07
2019-01-02T03:11:58.575Z,11.20
2019-01-02T03:14:33.478Z,6.67
2019-01-02T03:17:06.192Z,8.13
2019-01-02T03:19:39.533Z,8.30
2019-01-02T03:22:13.124Z,6.70
2019-01-02T03:24:50.024Z,7.97
2019-01-02T03:27:23.501Z,13.47
2019-01-02T03:29:56.824Z,7.97
2019-01-02T03:32:33.031Z,10.13
2019-01-02T03:35:06.358Z,11.47
2019-01-02T03:37:39.171Z,13.20
2019-01-02T03:40:11.873Z,14.23
2019-01-02T03:42:45.181Z,13.67
2019-01-02T03:45:19.505Z,9.73
2019-01-02T03:48:05.553Z,11.57
2019-01-02T03:50:41.997Z,9.40
2019-01-02T03:53:14.744Z,9.63
2019-01-02T03:55:47.801Z,8.80
2019-01-02T03:58:21.361Z,9.23
2019-01-02T04:00:54.018Z,14.57
2019-01-02T04:03:26.873Z,14.60
2019-01-02T04:05:59.615Z,10.30
2019-01-02T04:08:32.538Z,10.63
2019-01-02T04:11:05.192Z,9.20
2019-01-02T04:13:37.802Z,17.90
2019-01-02T04:16:10.050Z,19.40
2019-01-02T04:18:43.133Z,17.47
2019-01-02T04:21:15.965Z,17.20
2019-01-02T04:23:49.147Z,17.03
2019-01-02T04:26:21.615Z,19.70
2019-01-02T04:28:54.566Z,17.90
2019-01-02T04:31:27.144Z,18.67
2019-01-02T04:34:02.936Z,12.67
2019-01-02T04:36:35.866Z,16.07
2019-01-02T04:39:09.246Z,10.43
2019-01-02T04:41:42.927Z,15.30
2019-01-02T04:44:15.722Z,12.40
2019-01-02T04:46:48.187Z,10.33
2019-01-02T04:49:21.566Z,14.30
2019-01-02T04:51:53.878Z,11.77
2019-01-02T04:54:27.392Z,14.17
2019-01-02T04:57:02.488Z,10.70
2019-01-02T04:59:35.780Z,13.50
2019-01-02T05:02:08.233Z,9.50
2019-01-02T05:04:41.353Z,9.73
2019-01-02T05:07:16.348Z,16.17
2019-01-02T05:09:48.921Z,9.77
2019-01-02T05:12:21.598Z,9.43
2019-01-02T05:14:55.092Z,12.07
2019-01-02T05:17:28.305Z,8.87
2019-01-02T05:20:01.025Z,10.33
2019-01-02T05:22:34.583Z,17.00
2019-01-02T05:25:08.240Z,15.73
2019-01-02T05:27:43.114Z,15.03
2019-01-02T05:30:17.408Z,15.13
2019-01-02T05:32:50.185Z,14.40
2019-01-02T05:35:23.767Z,20.13
2019-01-02T05:37:59.029Z,19.63
2019-01-02T05:40:34.277Z,33.13
2019-01-02T05:43:07.081Z,22.17
2019-01-02T05:45:39.728Z,17.60
2019-01-02T05:48:12.059Z,20.53
2019-01-02T05:50:45.724Z,15.40
2019-01-02T05:53:18.675Z,15.13
2019-01-02T05:55:51.633Z,20.73
2019-01-02T05:58:24.252Z,25.27
2019-01-02T06:00:57.476Z,25.60
2019-01-02T06:03:29.943Z,26.00
2019-01-02T06:06:02.804Z,22.37
2019-01-02T06:08:37.825Z,27.20
2019-01-02T06:11:10.941Z,24.63
2019-01-02T06:13:43.716Z,34.93
2019-01-02T06:16:16.738Z,19.80
2019-01-02T06:18:52.186Z,17.40
2019-01-02T06:21:25.005Z,19.00
2019-01-02T06:23:57.425Z,20.97
2019-01-02T06:26:31.878Z,25.13
2019-01-02T06:29:04.317Z,25.50
2019-01-02T06:31:37.354Z,16.00
2019-01-02T06:34:09.652Z,32.37
2019-01-02T06:36:45.076Z,28.33
2019-01-02T06:39:19.395Z,21.60
2019-01-02T06:41:52.611Z,25.50
2019-01-02T06:44:27.568Z,20.77
2019-01-02T06:47:00.381Z,17.40
2019-01-02T06:49:32.844Z,29.37
2019-01-02T06:52:06.426Z,27.20
2019-01-02T06:54:41.969Z,20.87
2019-01-02T06:57:16.262Z,22.83
2019-01-02T06:59:48.549Z,18.73
2019-01-02T07:02:22.083Z,26.43
2019-01-02T07:04:54.838Z,20.30
2019-01-02T07:07:31.164Z,18.80
2019-01-02T07:10:04.606Z,14.53
2019-01-02T07:12:37.235Z,16.53
2019-01-02T07:15:10.166Z,21.00
2019-01-02T07:17:43.333Z,21.77
2019-01-02T07:20:16.762Z,31.37
2019-01-02T07:22:52.494Z,23.13
2019-01-02T07:25:24.679Z,18.40
2019-01-02T07:27:58.449Z,13.87
2019-01-02T07:30:32.015Z,16.77
2019-01-02T07:33:06.222Z,13.20
2019-01-02T07:35:46.988Z,12.50
2019-01-02T07:38:41.630Z,17.00
2019-01-02T07:41:35.868Z,20.93
2019-01-02T07:44:33.646Z,24.87
2019-01-02T07:47:13.606Z,29.10
2019-01-02T07:50:07.731Z,25.07
2019-01-02T07:52:57.494Z,16.97
2019-01-02T07:55:55.095Z,24.33
2019-01-02T07:58:36.729Z,14.30
2019-01-02T08:01:34.701Z,14.60
2019-01-02T08:04:11.950Z,17.37
2019-01-02T08:07:22.310Z,21.27
2019-01-02T08:10:08.271Z,25.20
2019-01-02T08:13:01.865Z,19.33
2019-01-02T08:15:51.471Z,16.23
2019-01-02T08:18:47.118Z,20.47
2019-01-02T08:21:47.766Z,11.60
2019-01-02T08:24:46.360Z,14.67
2019-01-02T08:27:47.322Z,20.57
2019-01-02T08:30:38.034Z,15.17
2019-01-02T08:33:27.804Z,17.77
2019-01-02T08:36:19.551Z,16.37
2019-01-02T08:39:10.456Z,16.80
2019-01-02T08:41:50.311Z,17.80
2019-01-02T08:44:40.258Z,21.70
2019-01-02T08:47:31.883Z,23.73
2019-01-02T08:50:29.646Z,22.97
2019-01-02T08:53:25.837Z,19.43
2019-01-02T08:56:15.822Z,17.40
2019-01-02T08:59:08.826Z,24.30
2019-01-02T09:01:48.077Z,16.00
2019-01-02T09:04:38.893Z,22.70
2019-01-02T09:07:16.169Z,20.00
2019-01-02T09:10:06.199Z,21.10
2019-01-02T09:12:50.549Z,19.50
2019-01-02T09:15:45.789Z,18.17
2019-01-02T09:18:42.761Z,18.90
2019-01-02T09:21:36.590Z,17.40
2019-01-02T09:24:26.603Z,23.80
2019-01-02T09:27:22.729Z,20.67
2019-01-02T09:30:12.411Z,18.53
2019-01-02T09:32:58.348Z,21.37
2019-01-02T09:35:59.408Z,21.37
2019-01-02T09:39:00.522Z,11.10
2019-01-02T09:41:59.874Z,17.53
2019-01-02T09:45:06.809Z,23.03
2019-01-02T09:48:11.091Z,27.33
2019-01-02T09:50:49.396Z,27.97
2019-01-02T09:53:32.495Z,13.87
2019-01-02T09:56:33.599Z,15.70
2019-01-02T09:59:31.210Z,19.60
2019-01-02T10:02:14.858Z,17.13
2019-01-02T10:05:01.866Z,18.62
2019-01-02T10:07:59.228Z,16.73
2019-01-02T10:10:52.486Z,14.63
2019-01-02T10:13:43.271Z,19.15
2019-01-02T10:16:44.794Z,16.10
2019-01-02T10:19:35.075Z,25.30
2019-01-02T10:22:29.667Z,17.57
2019-01-02T10:25:20.427Z,21.75
2019-01-02T10:28:07.102Z,13.35
2019-01-02T10:30:51.572Z,16.55
2019-01-02T10:33:43.524Z,14.80
2019-01-02T10:36:37.326Z,16.85
2019-01-02T10:39:23.765Z,13.85
2019-01-02T10:42:37.369Z,7.30
2019-01-02T10:45:22.087Z,14.97
2019-01-02T10:48:05.763Z,9.85
2019-01-02T10:51:04.526Z,5.80
2019-01-02T10:53:51.912Z,7.53
2019-01-02T10:56:49.650Z,5.20
2019-01-02T10:59:41.817Z,8.08
2019-01-02T11:02:39.456Z,13.07
2019-01-02T11:05:33.234Z,16.13
2019-01-02T11:08:26.315Z,19.83
2019-01-02T11:11:09.306Z,19.70
2019-01-02T11:13:48.326Z,23.40
2019-01-02T11:16:38.828Z,23.20
2019-01-02T11:19:35.638Z,23.83
2019-01-02T11:22:22.551Z,20.60
2019-01-02T11:25:12.398Z,21.20
2019-01-02T11:28:08.262Z,17.60
2019-01-02T11:30:53.737Z,18.40
2019-01-02T11:33:54.312Z,17.33
2019-01-02T11:36:47.636Z,16.67
2019-01-02T11:39:35.949Z,25.90
2019-01-02T11:42:32.471Z,20.20
2019-01-02T11:45:13.408Z,17.33
2019-01-02T11:47:47.130Z,16.50
2019-01-02T11:50:20.859Z,23.70
2019-01-02T11:52:54.690Z,19.87
2019-01-02T11:55:30.147Z,18.23
2019-01-02T11:58:03.457Z,13.10
2019-01-02T12:00:38.516Z,14.27
2019-01-02T12:03:13.140Z,17.53
2019-01-02T12:05:51.408Z,24.67
2019-01-02T12:08:24.718Z,25.80
2019-01-02T12:10:58.703Z,14.83
2019-01-02T12:13:33.100Z,18.10
2019-01-02T12:16:06.794Z,16.40
2019-01-02T12:18:42.802Z,17.17
2019-01-02T12:21:16.066Z,18.60
2019-01-02T12:23:49.326Z,20.83
2019-01-02T12:26:24.076Z,16.67
2019-01-02T12:29:03.060Z,15.30
2019-01-02T12:31:36.856Z,16.10
2019-01-02T12:34:09.780Z,16.97
2019-01-02T12:36:42.585Z,17.33
2019-01-02T12:39:19.038Z,28.97
2019-01-02T12:41:52.790Z,16.40
2019-01-02T12:44:26.914Z,21.77
2019-01-02T12:47:00.078Z,15.13
2019-01-02T12:49:32.816Z,18.70
2019-01-02T12:52:05.938Z,16.23
2019-01-02T12:54:39.048Z,37.50
2019-01-02T12:57:12.459Z,20.93
2019-01-02T12:59:46.512Z,16.87
2019-01-02T13:02:25.998Z,20.77
2019-01-02T13:05:05.065Z,19.83
2019-01-02T13:07:55.312Z,16.70
2019-01-02T13:10:31.860Z,21.10
2019-01-02T13:13:18.820Z,21.20
2019-01-02T13:16:10.839Z,22.77
2019-01-02T13:19:05.244Z,27.67
2019-01-02T13:21:59.944Z,34.37
2019-01-02T13:24:39.314Z,45.97
2019-01-02T13:27:40.596Z,44.97
2019-01-02T13:30:24.616Z,48.70
2019-01-02T13:33:18.666Z,51.30
2019-01-02T13:36:09.240Z,44.93
2019-01-02T13:39:01.908Z,46.37
2019-01-02T13:41:45.618Z,46.80
2019-01-02T13:44:22.852Z,41.17
2019-01-02T13:47:19.262Z,49.87
2019-01-02T13:49:54.998Z,39.80
2019-01-02T13:52:28.641Z,36.57
2019-01-02T13:55:06.464Z,42.47
2019-01-02T13:57:41.856Z,40.63
2019-01-02T14:00:18.481Z,41.20
2019-01-02T14:02:52.172Z,44.20
2019-01-02T14:05:25.233Z,40.03
2019-01-02T14:08:00.219Z,38.53
2019-01-02T14:10:34.096Z,42.27
2019-01-02T14:13:08.612Z,38.43
2019-01-02T14:15:41.592Z,47.03
2019-01-02T14:18:15.503Z,48.53
2019-01-02T14:20:49.862Z,48.07
2019-01-02T14:23:23.425Z,45.87
2019-01-02T14:25:58.104Z,40.07
2019-01-02T14:28:31.077Z,45.03
2019-01-02T14:31:06.128Z,46.67
2019-01-02T14:33:38.698Z,36.13
2019-01-02T14:36:12.205Z,40.87
2019-01-02T14:38:46.863Z,35.00
2019-01-02T14:41:19.402Z,36.70
2019-01-02T14:43:53.376Z,34.77
2019-01-02T14:46:29.746Z,27.87
2019-01-02T14:49:05.866Z,28.20
2019-01-02T14:51:38.805Z,32.73
2019-01-02T14:54:11.562Z,33.27
2019-01-02T14:56:44.708Z,43.97
2019-01-02T14:59:18.259Z,26.10
2019-01-02T15:01:55.430Z,28.50
2019-01-02T15:04:28.180Z,29.03
2019-01-02T15:07:01.840Z,21.40
2019-01-02T15:09:37.346Z,24.73
2019-01-02T15:12:12.162Z,23.50
2019-01-02T15:14:46.187Z,26.73
2019-01-02T15:17:20.044Z,38.47
2019-01-02T15:19:55.004Z,30.30
2019-01-02T15:22:29.892Z,39.30
2019-01-02T15:25:02.942Z,35.20
2019-01-02T15:27:37.740Z,33.77
2019-01-02T15:30:13.158Z,35.80
2019-01-02T15:32:49.884Z,33.73
2019-01-02T15:35:23.531Z,37.63
2019-01-02T15:37:56.444Z,27.97
2019-01-02T15:40:31.348Z,27.30
2019-01-02T15:43:07.667Z,32.20
2019-01-02T15:45:41.034Z,30.03
2019-01-02T15:48:15.346Z,30.33
2019-01-02T15:50:49.712Z,30.13
2019-01-02T15:53:23.851Z,38.10
2019-01-02T15:55:56.724Z,33.37
2019-01-02T15:58:29.263Z,27.93
2019-01-02T16:01:03.854Z,24.80
2019-01-02T16:03:37.654Z,27.90
2019-01-02T16:06:12.541Z,46.43
2019-01-02T16:08:47.593Z,37.23
2019-01-02T16:11:20.556Z,35.50
2019-01-02T16:13:53.601Z,33.53
2019-01-02T16:16:27.424Z,34.50
2019-01-02T16:19:02.775Z,41.17
2019-01-02T16:21:37.282Z,34.90
2019-01-02T16:24:13.374Z,43.27
2019-01-02T16:26:48.607Z,38.00
2019-01-02T16:29:21.422Z,43.30
2019-01-02T16:31:55.750Z,39.60
2019-01-02T16:34:41.922Z,37.27
2019-01-02T16:37:14.730Z,41.40
2019-01-02T16:39:48.546Z,45.50
2019-01-02T16:42:22.094Z,43.23
2019-01-02T16:44:55.401Z,53.47
2019-01-02T16:47:28.380Z,48.63
2019-01-02T16:50:03.366Z,60.43
2019-01-02T16:52:37.592Z,51.10
2019-01-02T16:55:10.977Z,55.67
2019-01-02T16:57:43.988Z,60.37
2019-01-02T17:00:17.334Z,40.60
2019-01-02T17:02:50.514Z,52.00
2019-01-02T17:05:23.404Z,34.00
2019-01-02T17:07:56.982Z,35.93
2019-01-02T17:10:29.628Z,17.40
2019-01-02T17:13:04.640Z,8.53
2019-01-02T17:15:38.232Z,8.23
2019-01-02T17:18:11.864Z,4.83
2019-01-02T17:20:46.158Z,4.37
2019-01-02T17:23:31.150Z,11.07
2019-01-02T17:26:09.330Z,7.63
2019-01-02T17:28:44.116Z,8.27
2019-01-02T17:31:22.652Z,15.03
2019-01-02T17:34:00.043Z,5.50
2019-01-02T17:36:32.589Z,5.20
2019-01-02T17:39:06.993Z,8.80
2019-01-02T17:41:41.582Z,14.27
2019-01-02T17:44:14.277Z,13.60
2019-01-02T17:46:46.888Z,13.93
2019-01-02T17:49:19.883Z,7.03
2019-01-02T17:51:52.457Z,9.17
2019-01-02T17:54:26.704Z,8.10
2019-01-02T17:56:59.227Z,13.97
2019-01-02T17:59:31.934Z,4.20
2019-01-02T18:02:05.173Z,5.17
2019-01-02T18:04:38.794Z,4.33
2019-01-02T18:07:11.322Z,8.07
2019-01-02T18:09:48.800Z,4.20
2019-01-02T18:12:21.264Z,13.43
2019-01-02T18:14:54.914Z,6.20
2019-01-02T18:17:29.692Z,12.43
2019-01-02T18:20:02.877Z,7.60
2019-01-02T18:22:35.164Z,12.70
2019-01-02T18:25:07.698Z,13.63
2019-01-02T18:27:40.396Z,14.83
2019-01-02T18:30:13.775Z,14.97
2019-01-02T18:32:46.417Z,21.70
2019-01-02T18:35:19.277Z,16.77
2019-01-02T18:37:53.655Z,14.13
2019-01-02T18:40:27.887Z,18.30
2019-01-02T18:43:00.949Z,9.43
2019-01-02T18:45:34.060Z,7.17
2019-01-02T18:48:07.212Z,7.37
2019-01-02T18:50:46.441Z,3.67
2019-01-02T18:53:19.189Z,10.10
2019-01-02T18:55:52.550Z,4.43
2019-01-02T18:58:25.765Z,6.83
2019-01-02T19:00:58.342Z,7.53
2019-01-02T19:03:31.143Z,7.97
2019-01-02T19:06:04.052Z,11.50
2019-01-02T19:08:36.595Z,8.93
2019-01-02T19:11:18.721Z,18.37
2019-01-02T19:13:52.331Z,8.23
2019-01-02T19:16:25.205Z,5.80
2019-01-02T19:18:57.811Z,12.90
2019-01-02T19:21:31.283Z,11.20
2019-01-02T19:24:05.297Z,8.13
2019-01-02T19:26:38.405Z,21.00
2019-01-02T19:29:10.921Z,8.63
2019-01-02T19:31:44.765Z,9.70
2019-01-02T19:34:17.508Z,14.40
2019-01-02T19:36:51.179Z,18.53
2019-01-02T19:39:24.193Z,30.00
2019-01-02T19:41:57.131Z,18.60
2019-01-02T19:44:29.521Z,14.90
2019-01-02T19:47:02.655Z,11.27
2019-01-02T19:49:35.115Z,7.73
2019-01-02T19:52:08.822Z,9.83
2019-01-02T19:54:41.415Z,5.33
2019-01-02T19:57:14.780Z,4.70
2019-01-02T19:59:47.375Z,2.67
2019-01-02T20:02:20.889Z,3.87
2019-01-02T20:04:53.761Z,4.00
2019-01-02T20:07:26.569Z,5.20
2019-01-02T20:10:00.015Z,7.30
2019-01-02T20:12:32.535Z,4.97
2019-01-02T20:15:05.077Z,3.50
2019-01-02T20:17:39.012Z,3.47
2019-01-02T20:20:13.054Z,3.70
2019-01-02T20:22:45.759Z,7.60
2019-01-02T20:25:18.322Z,3.53
2019-01-02T20:27:51.821Z,5.73
2019-01-02T20:30:24.373Z,5.00
2019-01-02T20:32:57.692Z,2.40
2019-01-02T20:35:30.377Z,3.40
2019-01-02T20:38:02.888Z,7.87
2019-01-02T20:40:36.792Z,9.00
2019-01-02T20:43:10.625Z,5.60
2019-01-02T20:45:45.155Z,3.20
2019-01-02T20:48:18.922Z,10.27
2019-01-02T20:50:52.511Z,8.00
2019-01-02T20:53:25.115Z,8.00
2019-01-02T20:55:57.516Z,6.70
2019-01-02T20:58:30.875Z,19.40
2019-01-02T21:01:03.527Z,10.43
2019-01-02T21:03:36.441Z,6.60
2019-01-02T21:06:08.967Z,5.07
2019-01-02T21:08:41.947Z,11.03
2019-01-02T21:11:14.641Z,10.10
2019-01-02T21:13:47.224Z,5.77
2019-01-02T21:16:20.120Z,6.30
2019-01-02T21:18:53.209Z,10.43
2019-01-02T21:21:25.837Z,24.00
2019-01-02T21:23:59.025Z,14.60
2019-01-02T21:26:32.496Z,8.03
2019-01-02T21:29:05.391Z,4.00
2019-01-02T21:31:38.208Z,5.23
2019-01-02T21:34:11.812Z,5.30
2019-01-02T21:36:44.399Z,16.30
2019-01-02T21:39:18.082Z,7.33
2019-01-02T21:41:51.558Z,10.30
2019-01-02T21:44:24.606Z,13.07
2019-01-02T21:46:57.633Z,5.50
2019-01-02T21:49:30.202Z,7.80
2019-01-02T21:52:02.568Z,3.33
2019-01-02T21:54:35.341Z,3.87
2019-01-02T21:57:12.457Z,9.03
2019-01-02T21:59:46.309Z,3.77
2019-01-02T22:02:18.947Z,18.07
2019-01-02T22:04:51.927Z,7.50
2019-01-02T22:07:25.037Z,10.30
2019-01-02T22:09:58.235Z,39.20
2019-01-02T22:12:31.074Z,22.87
2019-01-02T22:15:03.899Z,16.40
2019-01-02T22:17:36.504Z,14.20
2019-01-02T22:20:09.361Z,10.67
2019-01-02T22:22:41.909Z,8.57
2019-01-02T22:25:14.464Z,8.77
2019-01-02T22:27:46.984Z,11.33
2019-01-02T22:30:21.687Z,9.27
2019-01-02T22:32:55.338Z,10.70
2019-01-02T22:35:28.138Z,10.73
2019-01-02T22:38:00.078Z,6.63
2019-01-02T22:40:33.615Z,5.20
2019-01-02T22:43:06.027Z,8.57
2019-01-02T22:45:38.906Z,6.20
2019-01-02T22:48:11.418Z,7.80
2019-01-02T22:50:44.933Z,6.37
2019-01-02T22:53:17.968Z,6.80
2019-01-02T22:55:50.940Z,12.17
2019-01-02T22:58:23.087Z,9.30
2019-01-02T23:01:29.602Z,5.90
2019-01-02T23:04:13.701Z,8.07
2019-01-02T23:07:06.678Z,7.40
2019-01-02T23:09:57.766Z,10.87
2019-01-02T23:12:53.394Z,5.97
2019-01-02T23:15:46.002Z,8.73
2019-01-02T23:18:48.474Z,10.87
2019-01-02T23:21:39.567Z,13.47
2019-01-02T23:24:43.260Z,11.83
2019-01-02T23:27:36.277Z,25.03
2019-01-02T23:30:29.295Z,7.93
2019-01-02T23:33:22.633Z,8.03
2019-01-02T23:36:25.705Z,12.50
2019-01-02T23:39:18.254Z,11.40
2019-01-02T23:42:29.738Z,7.47
2019-01-02T23:45:22.701Z,5.57
2019-01-02T23:48:34.979Z,11.03
2019-01-02T23:51:34.327Z,7.47
2019-01-02T23:54:41.604Z,7.95
2019-01-02T23:57:32.812Z,9.03
